This is the latest recevied weather packets stored in our database for station/object VK2KGV-15. If no packets are shown the sender has not sent any weather packets the latest 10 day(s).
| Time | Temp. | Humidity | Pressure | Rain* | Wind** | Luminosity | Snow |
|---|---|---|---|---|---|---|---|
| 1778208350 | 17.22° C | 37% | 1018.4 hPa | 0 mm | - | - | - |
| 1778204131 | 15.56° C | 39% | 1019.3 hPa | 0 mm | - | - | - |
| 1778202922 | 15° C | 40% | 1019.6 hPa | 0 mm | - | - | - |
| 1778201716 | 14.44° C | 41% | 1020 hPa | 0 mm | - | - | - |
| 1778198097 | 12.78° C | 45% | 1020.4 hPa | 0 mm | - | - | - |
| 1778197494 | 11.67° C | 47% | 1020.7 hPa | 0 mm | - | - | - |
| 1778196891 | 11.11° C | 49% | 1020.8 hPa | 0 mm | - | - | - |
| 1778194478 | 9.44° C | 55% | 1021.3 hPa | 0 mm | - | - | - |
| 1778192066 | 7.22° C | 63% | 1021.5 hPa | 0 mm | - | - | - |
| 1778190860 | 6.11° C | 69% | 1021.6 hPa | 0 mm | - | - | - |
| 1778189654 | 3.89° C | 77% | 1021.9 hPa | 0 mm | - | - | - |
| 1778188447 | 0.56° C | 84% | 1022.3 hPa | 0 mm | - | - | - |
| 1778184832 | -1.11° C | 82% | 1022.3 hPa | 0 mm | - | - | - |
| 1778183623 | -1.11° C | 81% | 1022.4 hPa | 0 mm | - | - | - |
| 1778181210 | -1.11° C | 79% | 1022.1 hPa | 0 mm | - | - | - |
| 1778180607 | -1.11° C | 78% | 1022 hPa | 0 mm | - | - | - |
| 1778178798 | -0.56° C | 78% | 1021.9 hPa | 0 mm | - | - | - |
| 1778177591 | -0.56° C | 76% | 1021.6 hPa | 0 mm | - | - | - |
| 1778176988 | -0.56° C | 75% | 1021.8 hPa | 0 mm | - | - | - |
| 1778176385 | 0° C | 74% | 1021.8 hPa | 0 mm | - | - | - |
| 1778175179 | 0° C | 73% | 1021.7 hPa | 0 mm | - | - | - |
| 1778174576 | 0° C | 74% | 1021.5 hPa | 0 mm | - | - | - |
| 1778173976 | 0° C | 75% | 1021.6 hPa | 0 mm | - | - | - |
| 1778172767 | 0° C | 72% | 1021.4 hPa | 0 mm | - | - | - |
| 1778170958 | 0.56° C | 71% | 1021.3 hPa | 0 mm | - | - | - |
* Rain since midnight (hover to see other rain measurements)
** Current wind speed in m/s (hover to see current wind gust speed)